createdAt,value
2022-11-28T00:01:18.411Z,8.30
2022-11-28T00:03:45.896Z,7.30
2022-11-28T00:06:13.399Z,7.03
2022-11-28T00:08:42.373Z,6.83
2022-11-28T00:11:11.681Z,7.10
2022-11-28T00:13:39.111Z,7.43
2022-11-28T00:16:07.837Z,7.13
2022-11-28T00:18:35.548Z,6.87
2022-11-28T00:21:03.145Z,6.60
2022-11-28T00:23:30.603Z,6.53
2022-11-28T00:26:00.238Z,7.60
2022-11-28T00:28:27.877Z,9.13
2022-11-28T00:30:55.397Z,10.13
2022-11-28T00:33:22.836Z,6.93
2022-11-28T00:35:50.386Z,7.63
2022-11-28T00:38:17.888Z,6.77
2022-11-28T00:40:45.293Z,7.90
2022-11-28T00:43:14.092Z,7.93
2022-11-28T00:45:41.547Z,8.93
2022-11-28T00:48:08.953Z,7.73
2022-11-28T00:50:36.365Z,7.97
2022-11-28T00:53:03.760Z,10.70
2022-11-28T00:55:31.152Z,8.53
2022-11-28T00:57:58.587Z,10.93
2022-11-28T01:00:27.431Z,10.27
2022-11-28T01:02:54.843Z,8.87
2022-11-28T01:05:22.256Z,10.07
2022-11-28T01:07:49.684Z,8.93
2022-11-28T01:10:17.376Z,10.57
2022-11-28T01:12:44.787Z,8.10
2022-11-28T01:15:12.818Z,10.17
2022-11-28T01:17:41.589Z,8.57
2022-11-28T01:20:09.637Z,9.63
2022-11-28T01:22:38.103Z,9.90
2022-11-28T01:25:05.785Z,8.73
2022-11-28T01:27:34.227Z,7.87
2022-11-28T01:30:01.645Z,8.53
2022-11-28T01:32:29.052Z,8.73
2022-11-28T01:34:57.860Z,9.27
2022-11-28T01:37:25.270Z,9.27
2022-11-28T01:39:52.661Z,7.90
2022-11-28T01:42:20.678Z,7.37
2022-11-28T01:45:06.698Z,8.43
2022-11-28T01:47:34.842Z,8.77
2022-11-28T01:50:03.893Z,8.77
2022-11-28T01:52:31.372Z,8.50
2022-11-28T01:55:01.089Z,8.97
2022-11-28T01:57:29.051Z,8.57
2022-11-28T01:59:58.599Z,7.83
2022-11-28T02:02:27.961Z,10.67
2022-11-28T02:04:55.569Z,8.50
2022-11-28T02:07:24.678Z,9.20
2022-11-28T02:09:52.135Z,8.93
2022-11-28T02:12:23.231Z,8.87
2022-11-28T02:15:02.004Z,9.20
2022-11-28T02:17:34.874Z,8.87
2022-11-28T02:20:14.106Z,8.90
2022-11-28T02:22:45.118Z,10.20
2022-11-28T02:25:32.749Z,8.87
2022-11-28T02:28:10.822Z,9.63
2022-11-28T02:30:43.291Z,10.10
2022-11-28T02:33:15.538Z,9.00
2022-11-28T02:35:46.333Z,7.87
2022-11-28T02:38:18.189Z,10.00
2022-11-28T02:40:50.593Z,7.63
2022-11-28T02:43:21.366Z,9.03
2022-11-28T02:45:51.247Z,9.20
2022-11-28T02:48:26.493Z,10.57
2022-11-28T02:50:56.458Z,10.33
2022-11-28T02:53:25.486Z,8.87
2022-11-28T02:55:53.402Z,10.23
2022-11-28T02:58:20.788Z,9.20
2022-11-28T03:00:48.527Z,8.43
2022-11-28T03:03:34.695Z,7.57
2022-11-28T03:06:08.197Z,9.83
2022-11-28T03:08:54.815Z,8.43
2022-11-28T03:11:24.918Z,7.90
2022-11-28T03:13:54.612Z,9.50
2022-11-28T03:16:26.626Z,8.50
2022-11-28T03:19:00.536Z,10.17
2022-11-28T03:21:34.111Z,8.70
2022-11-28T03:24:03.897Z,9.67
2022-11-28T03:26:36.626Z,10.53
2022-11-28T03:29:07.797Z,9.60
2022-11-28T03:31:37.501Z,8.50
2022-11-28T03:34:06.770Z,9.30
2022-11-28T03:36:39.959Z,11.27
2022-11-28T03:39:09.890Z,9.60
2022-11-28T03:41:39.407Z,9.70
2022-11-28T03:44:09.085Z,9.20
2022-11-28T03:46:38.365Z,10.00
2022-11-28T03:49:07.525Z,8.47
2022-11-28T03:51:37.745Z,8.97
2022-11-28T03:54:07.714Z,8.57
2022-11-28T03:56:37.878Z,11.03
2022-11-28T03:59:08.508Z,9.43
2022-11-28T04:01:41.280Z,12.07
2022-11-28T04:04:13.371Z,8.90
2022-11-28T04:06:49.650Z,11.40
2022-11-28T04:09:19.466Z,11.27
2022-11-28T04:11:48.846Z,11.43
2022-11-28T04:14:20.319Z,11.47
2022-11-28T04:16:53.964Z,8.10
2022-11-28T04:19:24.426Z,10.47
2022-11-28T04:21:55.464Z,11.57
2022-11-28T04:24:24.888Z,10.47
2022-11-28T04:26:54.840Z,10.47
2022-11-28T04:29:24.389Z,9.73
2022-11-28T04:31:54.908Z,10.03
2022-11-28T04:34:24.445Z,12.13
2022-11-28T04:36:54.266Z,10.73
2022-11-28T04:39:22.920Z,9.83
2022-11-28T04:41:54.545Z,10.53
2022-11-28T04:44:24.244Z,10.90
2022-11-28T04:46:53.047Z,11.33
2022-11-28T04:49:20.492Z,10.23
2022-11-28T04:51:51.397Z,8.57
2022-11-28T04:54:23.847Z,10.67
2022-11-28T04:56:54.242Z,9.67
2022-11-28T04:59:23.074Z,10.17
2022-11-28T05:01:51.161Z,10.60
2022-11-28T05:04:19.083Z,10.37
2022-11-28T05:06:46.513Z,11.00
2022-11-28T05:09:14.176Z,10.57
2022-11-28T05:11:42.946Z,9.70
2022-11-28T05:14:10.425Z,9.43
2022-11-28T05:16:37.944Z,9.40
2022-11-28T05:19:05.415Z,9.47
2022-11-28T05:21:32.878Z,11.87
2022-11-28T05:24:00.265Z,10.87
2022-11-28T05:26:27.891Z,11.30
2022-11-28T05:28:57.735Z,11.00
2022-11-28T05:31:25.483Z,11.63
2022-11-28T05:33:52.910Z,11.80
2022-11-28T05:36:20.912Z,11.80
2022-11-28T05:38:48.386Z,11.90
2022-11-28T05:41:19.587Z,11.13
2022-11-28T05:43:47.047Z,10.33
2022-11-28T05:46:15.883Z,8.53
2022-11-28T05:48:43.727Z,10.57
2022-11-28T05:51:11.406Z,8.90
2022-11-28T05:53:38.894Z,9.60
2022-11-28T05:56:10.177Z,13.13
2022-11-28T05:58:37.741Z,10.53
2022-11-28T06:01:12.032Z,10.93
2022-11-28T06:03:40.778Z,10.43
2022-11-28T06:06:11.942Z,11.73
2022-11-28T06:08:39.323Z,11.13
2022-11-28T06:11:06.961Z,10.23
2022-11-28T06:13:34.351Z,12.77
2022-11-28T06:16:01.842Z,9.40
2022-11-28T06:18:29.294Z,10.50
2022-11-28T06:20:58.089Z,10.93
2022-11-28T06:23:25.490Z,11.63
2022-11-28T06:25:52.883Z,10.93
2022-11-28T06:28:20.326Z,12.20
2022-11-28T06:30:47.731Z,11.97
2022-11-28T06:33:15.133Z,11.00
2022-11-28T06:35:42.545Z,10.97
2022-11-28T06:38:14.192Z,10.70
2022-11-28T06:40:42.023Z,11.17
2022-11-28T06:43:09.444Z,10.70
2022-11-28T06:45:37.146Z,10.23
2022-11-28T06:48:04.629Z,11.20
2022-11-28T06:50:33.155Z,12.03
2022-11-28T06:53:00.544Z,11.37
2022-11-28T06:55:30.248Z,12.93
2022-11-28T06:57:58.689Z,12.77
2022-11-28T07:00:26.209Z,12.37
2022-11-28T07:02:53.626Z,10.90
2022-11-28T07:05:22.855Z,10.97
2022-11-28T07:07:54.122Z,11.93
2022-11-28T07:10:22.573Z,11.77
2022-11-28T07:12:55.477Z,9.27
2022-11-28T07:15:23.250Z,10.13
2022-11-28T07:17:50.824Z,10.93
2022-11-28T07:20:18.932Z,12.13
2022-11-28T07:22:47.677Z,13.57
2022-11-28T07:25:15.966Z,10.63
2022-11-28T07:27:43.445Z,12.10
2022-11-28T07:30:12.558Z,12.60
2022-11-28T07:32:40.303Z,13.53
2022-11-28T07:35:09.005Z,12.97
2022-11-28T07:37:36.897Z,10.73
2022-11-28T07:40:04.514Z,10.37
2022-11-28T07:42:31.925Z,10.37
2022-11-28T07:44:59.520Z,12.50
2022-11-28T07:47:28.239Z,9.60
2022-11-28T07:49:55.731Z,13.30
2022-11-28T07:52:23.193Z,11.53
2022-11-28T07:54:51.038Z,10.83
2022-11-28T07:57:18.516Z,12.30
2022-11-28T07:59:46.060Z,10.97
2022-11-28T08:02:13.661Z,10.80
2022-11-28T08:04:47.751Z,10.93
2022-11-28T08:07:15.967Z,13.00
2022-11-28T08:09:43.656Z,13.23
2022-11-28T08:12:11.282Z,13.70
2022-11-28T08:14:38.742Z,10.80
2022-11-28T08:17:06.263Z,13.70
2022-11-28T08:19:35.474Z,10.90
2022-11-28T08:22:04.316Z,11.43
2022-11-28T08:24:31.731Z,11.73
2022-11-28T08:26:59.140Z,11.97
2022-11-28T08:29:26.592Z,12.30
2022-11-28T08:31:55.173Z,12.53
2022-11-28T08:34:22.927Z,12.53
2022-11-28T08:36:50.319Z,12.17
2022-11-28T08:39:26.495Z,12.20
2022-11-28T08:41:54.245Z,11.53
2022-11-28T08:44:21.692Z,12.60
2022-11-28T08:46:49.291Z,12.73
2022-11-28T08:49:16.927Z,11.40
2022-11-28T08:51:44.357Z,11.37
2022-11-28T08:54:11.851Z,11.10
2022-11-28T08:56:40.599Z,10.73
2022-11-28T08:59:08.121Z,13.83
2022-11-28T09:01:35.582Z,11.27
2022-11-28T09:04:03.082Z,13.43
2022-11-28T09:06:30.495Z,10.40
2022-11-28T09:08:58.839Z,10.60
2022-11-28T09:11:26.606Z,10.97
2022-11-28T09:13:55.789Z,12.33
2022-11-28T09:16:23.275Z,11.10
2022-11-28T09:18:51.751Z,11.60
2022-11-28T09:21:19.163Z,10.87
2022-11-28T09:23:46.762Z,15.00
2022-11-28T09:26:15.101Z,13.00
2022-11-28T09:28:42.525Z,12.93
2022-11-28T09:31:12.315Z,10.33
2022-11-28T09:33:39.855Z,12.53
2022-11-28T09:36:09.047Z,14.17
2022-11-28T09:38:36.513Z,12.07
2022-11-28T09:41:04.471Z,10.37
2022-11-28T09:43:33.898Z,10.60
2022-11-28T09:46:02.351Z,14.67
2022-11-28T09:48:34.755Z,11.70
2022-11-28T09:51:06.302Z,11.03
2022-11-28T09:53:37.734Z,14.50
2022-11-28T09:56:07.469Z,13.17
2022-11-28T09:58:37.907Z,13.43
2022-11-28T10:01:09.155Z,10.50
2022-11-28T10:03:41.585Z,14.00
2022-11-28T10:06:13.791Z,12.63
2022-11-28T10:08:47.468Z,11.63
2022-11-28T10:11:27.342Z,9.73
2022-11-28T10:14:09.135Z,11.60
2022-11-28T10:16:43.362Z,10.63
2022-11-28T10:19:31.560Z,10.87
2022-11-28T10:22:03.323Z,11.13
2022-11-28T10:24:35.309Z,11.67
2022-11-28T10:27:04.611Z,11.90
2022-11-28T10:29:34.196Z,11.67
2022-11-28T10:32:02.689Z,12.63
2022-11-28T10:34:33.228Z,13.83
2022-11-28T10:37:03.738Z,12.03
2022-11-28T10:39:31.169Z,14.07
2022-11-28T10:42:14.017Z,12.87
2022-11-28T10:44:48.268Z,12.10
2022-11-28T10:47:19.064Z,12.60
2022-11-28T10:49:51.711Z,12.40
2022-11-28T10:52:22.296Z,11.53
2022-11-28T10:55:00.709Z,11.43
2022-11-28T10:57:30.310Z,11.43
2022-11-28T11:00:03.897Z,12.37
2022-11-28T11:02:34.736Z,12.13
2022-11-28T11:05:03.999Z,11.20
2022-11-28T11:07:32.413Z,13.13
2022-11-28T11:10:02.830Z,13.33
2022-11-28T11:12:32.771Z,13.67
2022-11-28T11:15:00.191Z,11.17
2022-11-28T11:17:34.215Z,11.70
2022-11-28T11:20:20.303Z,12.03
2022-11-28T11:22:54.863Z,11.60
2022-11-28T11:25:22.384Z,12.00
2022-11-28T11:27:50.708Z,12.00
2022-11-28T11:30:19.847Z,12.10
2022-11-28T11:32:51.416Z,13.43
2022-11-28T11:35:22.695Z,11.50
2022-11-28T11:37:50.119Z,10.77
2022-11-28T11:40:26.152Z,13.53
2022-11-28T11:42:55.075Z,11.07
2022-11-28T11:45:30.943Z,12.63
2022-11-28T11:47:58.716Z,16.23
2022-11-28T11:50:28.332Z,14.17
2022-11-28T11:53:02.666Z,11.80
2022-11-28T11:55:32.645Z,13.40
2022-11-28T11:58:05.424Z,11.07
2022-11-28T12:00:35.910Z,12.37
2022-11-28T12:03:06.216Z,11.17
2022-11-28T12:06:06.191Z,13.00
2022-11-28T12:08:32.602Z,12.03
2022-11-28T12:11:08.000Z,12.90
2022-11-28T12:13:36.213Z,12.73
2022-11-28T12:16:07.606Z,11.23
2022-11-28T12:18:41.059Z,11.63
2022-11-28T12:21:14.330Z,11.87
2022-11-28T12:23:50.892Z,14.90
2022-11-28T12:26:21.841Z,11.47
2022-11-28T12:28:57.759Z,10.73
2022-11-28T12:31:33.727Z,11.83
2022-11-28T12:34:05.468Z,13.40
2022-11-28T12:36:37.587Z,11.50
2022-11-28T12:39:13.393Z,13.53
2022-11-28T12:41:47.340Z,10.10
2022-11-28T12:44:21.173Z,14.97
2022-11-28T12:46:53.734Z,11.67
2022-11-28T12:49:27.055Z,11.33
2022-11-28T12:52:01.427Z,12.73
2022-11-28T12:54:43.736Z,12.93
2022-11-28T12:57:14.905Z,12.67
2022-11-28T12:59:47.639Z,11.17
2022-11-28T13:02:31.008Z,12.93
2022-11-28T13:05:04.529Z,10.57
2022-11-28T13:07:38.301Z,12.10
2022-11-28T13:10:10.185Z,11.90
2022-11-28T13:12:45.720Z,12.53
2022-11-28T13:15:16.941Z,10.60
2022-11-28T13:17:47.875Z,12.47
2022-11-28T13:20:23.140Z,11.87
2022-11-28T13:22:57.934Z,12.63
2022-11-28T13:25:29.126Z,13.70
2022-11-28T13:27:59.789Z,11.07
2022-11-28T13:30:28.122Z,12.43
2022-11-28T13:33:00.741Z,10.60
2022-11-28T13:35:29.062Z,13.57
2022-11-28T13:40:50.092Z,13.90
2022-11-28T13:43:18.892Z,12.17
2022-11-28T13:45:47.060Z,11.27
2022-11-28T13:48:49.848Z,12.03
2022-11-28T13:51:22.803Z,11.63
2022-11-28T13:54:20.436Z,13.10
2022-11-28T13:57:04.086Z,13.20
2022-11-28T13:59:32.141Z,11.87
2022-11-28T14:02:00.819Z,14.80
2022-11-28T14:04:28.903Z,11.47
2022-11-28T14:06:59.538Z,10.63
2022-11-28T14:09:34.965Z,10.73
2022-11-28T14:12:08.098Z,11.17
2022-11-28T14:14:45.694Z,12.13
2022-11-28T14:17:28.848Z,11.90
2022-11-28T14:20:04.500Z,11.10
2022-11-28T14:22:38.887Z,14.40
2022-11-28T14:25:10.204Z,12.53
2022-11-28T14:27:40.135Z,12.77
2022-11-28T14:30:09.383Z,10.37
2022-11-28T14:32:38.826Z,11.67
2022-11-28T14:35:10.165Z,12.60
2022-11-28T14:37:48.572Z,10.70
2022-11-28T14:40:34.504Z,10.27
2022-11-28T14:43:16.787Z,10.83
2022-11-28T14:45:46.007Z,11.10
2022-11-28T14:48:18.823Z,13.47
2022-11-28T14:50:52.431Z,11.43
2022-11-28T14:53:38.890Z,12.43
2022-11-28T14:56:10.414Z,12.27
2022-11-28T14:58:37.838Z,12.77
2022-11-28T15:01:10.569Z,14.13
2022-11-28T15:03:41.581Z,11.27
2022-11-28T15:06:11.652Z,10.97
2022-11-28T15:08:47.517Z,12.27
2022-11-28T15:11:39.168Z,11.47
2022-11-28T15:14:09.794Z,13.70
2022-11-28T15:16:42.826Z,11.77
2022-11-28T15:19:16.507Z,12.07
2022-11-28T15:21:44.987Z,14.47
2022-11-28T15:24:16.145Z,12.70
2022-11-28T15:26:44.667Z,14.27
2022-11-28T15:29:18.861Z,14.03
2022-11-28T15:31:48.956Z,14.37
2022-11-28T15:34:22.620Z,11.97
2022-11-28T15:36:52.152Z,14.17
2022-11-28T15:39:25.685Z,12.60
2022-11-28T15:41:53.182Z,11.53
2022-11-28T15:44:20.627Z,12.77
2022-11-28T15:46:49.554Z,13.37
2022-11-28T15:49:24.204Z,12.07
2022-11-28T15:51:53.092Z,12.80
2022-11-28T15:54:34.596Z,13.80
2022-11-28T15:57:02.718Z,14.63
2022-11-28T15:59:30.190Z,13.03
2022-11-28T16:02:00.816Z,13.43
2022-11-28T16:04:29.197Z,12.27
2022-11-28T16:06:58.911Z,13.13
2022-11-28T16:09:27.739Z,12.33
2022-11-28T16:11:55.428Z,14.53
2022-11-28T16:14:25.015Z,12.63
2022-11-28T16:16:52.602Z,13.93
2022-11-28T16:19:24.220Z,13.87
2022-11-28T16:21:53.305Z,12.63
2022-11-28T16:24:25.725Z,15.30
2022-11-28T16:26:59.659Z,14.57
2022-11-28T16:29:31.841Z,14.67
2022-11-28T16:32:09.197Z,15.57
2022-11-28T16:34:47.882Z,13.83
2022-11-28T16:37:19.848Z,13.87
2022-11-28T16:39:47.527Z,13.53
2022-11-28T16:42:15.894Z,13.87
2022-11-28T16:44:43.641Z,14.37
2022-11-28T16:47:24.731Z,16.17
2022-11-28T16:50:05.243Z,17.13
2022-11-28T16:52:39.982Z,17.33
2022-11-28T16:55:34.824Z,17.07
2022-11-28T16:58:07.080Z,16.70
2022-11-28T17:00:34.535Z,16.97
2022-11-28T17:03:01.951Z,14.87
2022-11-28T17:05:31.910Z,17.67
2022-11-28T17:08:01.356Z,13.67
2022-11-28T17:10:28.786Z,12.73
2022-11-28T17:12:56.168Z,13.70
2022-11-28T17:15:23.625Z,16.67
2022-11-28T17:17:51.171Z,16.17
2022-11-28T17:20:18.742Z,13.77
2022-11-28T17:22:48.567Z,18.37
2022-11-28T17:25:16.935Z,17.37
2022-11-28T17:27:44.572Z,16.03
2022-11-28T17:30:14.124Z,17.33
2022-11-28T17:32:41.519Z,17.23
2022-11-28T17:35:12.108Z,14.93
2022-11-28T17:37:40.070Z,14.70
2022-11-28T17:40:27.491Z,16.10
2022-11-28T17:42:54.905Z,15.43
2022-11-28T17:45:22.906Z,15.90
2022-11-28T17:47:50.308Z,18.27
2022-11-28T17:50:17.792Z,18.03
2022-11-28T17:52:45.347Z,17.57
2022-11-28T17:55:14.203Z,14.33
2022-11-28T17:57:42.776Z,13.60
2022-11-28T18:00:11.563Z,16.07
2022-11-28T18:02:39.042Z,16.80
2022-11-28T18:05:06.882Z,19.53
2022-11-28T18:07:34.286Z,16.40
2022-11-28T18:10:01.680Z,18.63
2022-11-28T18:12:30.520Z,16.70
2022-11-28T18:14:59.479Z,18.77
2022-11-28T18:17:26.907Z,22.33
2022-11-28T18:19:57.515Z,19.17
2022-11-28T18:22:25.344Z,23.77
2022-11-28T18:24:52.717Z,19.00
2022-11-28T18:27:20.127Z,21.23
2022-11-28T18:29:48.887Z,17.73
2022-11-28T18:32:16.297Z,19.03
2022-11-28T18:34:43.698Z,17.53
2022-11-28T18:37:11.090Z,18.40
2022-11-28T18:39:38.484Z,17.83
2022-11-28T18:42:05.993Z,18.47
2022-11-28T18:44:33.730Z,18.67
2022-11-28T18:47:02.679Z,17.17
2022-11-28T18:49:30.147Z,18.13
2022-11-28T18:51:57.602Z,16.90
2022-11-28T18:54:26.732Z,18.40
2022-11-28T18:56:54.134Z,16.50
2022-11-28T18:59:21.625Z,19.63
2022-11-28T19:01:49.142Z,18.63
2022-11-28T19:04:18.161Z,17.93
2022-11-28T19:06:45.626Z,18.37
2022-11-28T19:09:14.144Z,20.50
2022-11-28T19:11:41.823Z,20.07
2022-11-28T19:14:09.690Z,19.17
2022-11-28T19:16:38.003Z,21.10
2022-11-28T19:19:06.467Z,21.47
2022-11-28T19:21:35.989Z,19.83
2022-11-28T19:24:03.794Z,21.20
2022-11-28T19:26:33.429Z,22.33
2022-11-28T19:29:01.122Z,27.33
2022-11-28T19:31:29.508Z,21.13
2022-11-28T19:34:01.344Z,22.53
2022-11-28T19:36:30.396Z,20.73
2022-11-28T19:38:59.169Z,19.17
2022-11-28T19:41:26.605Z,21.17
2022-11-28T19:43:54.058Z,20.13
2022-11-28T19:46:21.542Z,20.53
2022-11-28T19:48:51.197Z,18.27
2022-11-28T19:51:19.266Z,18.37
2022-11-28T19:53:46.686Z,19.57
2022-11-28T19:56:16.433Z,19.43
2022-11-28T19:58:44.227Z,21.57
2022-11-28T20:01:12.451Z,20.93
2022-11-28T20:03:40.615Z,18.97
2022-11-28T20:06:09.153Z,18.43
2022-11-28T20:08:36.627Z,19.70
2022-11-28T20:11:10.796Z,21.63
2022-11-28T20:13:39.598Z,15.77
2022-11-28T20:16:08.780Z,22.17
2022-11-28T20:18:37.276Z,20.17
2022-11-28T20:21:06.157Z,18.73
2022-11-28T20:23:33.721Z,19.83
2022-11-28T20:26:05.165Z,16.93
2022-11-28T20:28:33.876Z,21.23
2022-11-28T20:31:02.947Z,18.17
2022-11-28T20:33:30.509Z,21.17
2022-11-28T20:36:05.558Z,17.60
2022-11-28T20:38:33.161Z,20.27
2022-11-28T20:41:00.997Z,20.53
2022-11-28T20:43:29.873Z,19.27
2022-11-28T20:46:03.836Z,19.23
2022-11-28T20:48:31.367Z,20.33
2022-11-28T20:50:59.076Z,16.40
2022-11-28T20:53:27.144Z,17.10
2022-11-28T20:55:59.753Z,22.93
2022-11-28T20:58:27.236Z,18.33
2022-11-28T21:00:55.809Z,23.67
2022-11-28T21:03:26.167Z,23.53
2022-11-28T21:05:57.950Z,20.47
2022-11-28T21:08:30.368Z,20.60
2022-11-28T21:10:57.885Z,19.03
2022-11-28T21:13:25.306Z,21.73
2022-11-28T21:15:53.425Z,22.63
2022-11-28T21:18:20.877Z,22.67
2022-11-28T21:20:49.667Z,24.00
2022-11-28T21:23:17.855Z,21.80
2022-11-28T21:25:45.398Z,21.57
2022-11-28T21:28:13.344Z,26.97
2022-11-28T21:30:42.499Z,25.57
2022-11-28T21:33:10.227Z,23.13
2022-11-28T21:35:38.071Z,28.67
2022-11-28T21:38:06.969Z,23.93
2022-11-28T21:40:34.780Z,25.73
2022-11-28T21:43:02.442Z,24.77
2022-11-28T21:45:29.921Z,23.70
2022-11-28T21:47:57.355Z,22.13
2022-11-28T21:50:24.962Z,23.87
2022-11-28T21:52:52.581Z,21.80
2022-11-28T21:55:21.517Z,19.97
2022-11-28T21:57:48.890Z,22.80
2022-11-28T22:00:45.577Z,22.53
2022-11-28T22:03:09.417Z,21.30
2022-11-28T22:05:40.076Z,23.10
2022-11-28T22:08:07.493Z,26.27
2022-11-28T22:10:37.847Z,23.70
2022-11-28T22:13:05.347Z,24.50
2022-11-28T22:15:32.764Z,22.67
2022-11-28T22:18:00.323Z,23.13
2022-11-28T22:20:27.733Z,23.90
2022-11-28T22:22:55.258Z,25.50
2022-11-28T22:25:22.717Z,23.97
2022-11-28T22:27:51.455Z,20.97
2022-11-28T22:30:18.900Z,20.70
2022-11-28T22:32:46.357Z,24.53
2022-11-28T22:35:13.765Z,22.50
2022-11-28T22:37:41.196Z,25.93
2022-11-28T22:40:09.271Z,22.87
2022-11-28T22:42:36.815Z,22.93
2022-11-28T22:45:05.964Z,21.40
2022-11-28T22:47:33.673Z,23.73
2022-11-28T22:50:01.078Z,25.20
2022-11-28T22:52:28.612Z,19.00
2022-11-28T22:54:56.199Z,20.43
2022-11-28T22:57:23.783Z,22.07
2022-11-28T22:59:52.218Z,22.07
2022-11-28T23:02:21.160Z,19.43
2022-11-28T23:04:48.642Z,22.00
2022-11-28T23:07:16.654Z,24.67
2022-11-28T23:09:44.074Z,21.97
2022-11-28T23:12:11.636Z,22.30
2022-11-28T23:14:39.063Z,20.73
2022-11-28T23:17:06.663Z,20.70
2022-11-28T23:19:35.501Z,20.50
2022-11-28T23:22:02.912Z,21.27
2022-11-28T23:24:30.306Z,20.90
2022-11-28T23:26:57.754Z,25.53
2022-11-28T23:29:25.142Z,21.90
2022-11-28T23:31:52.591Z,22.57
2022-11-28T23:34:20.022Z,17.37
2022-11-28T23:36:48.811Z,23.63
2022-11-28T23:39:16.931Z,21.20
2022-11-28T23:41:44.708Z,21.67
2022-11-28T23:44:12.567Z,23.57
2022-11-28T23:46:40.407Z,21.03
2022-11-28T23:49:07.881Z,19.23
2022-11-28T23:51:35.488Z,20.40
2022-11-28T23:54:04.495Z,21.27
2022-11-28T23:56:34.932Z,20.57
2022-11-28T23:59:03.202Z,20.43
